If you wish to contribute or participate in the discussions about articles you are invited to join SKYbrary as a registered user

 Actions

Akita

From SKYbrary Wiki

RJSK
Airport
ICAO: RJSK
Summary
Name Akita
Region Asia and Pacific
Territory Japan JP.gif
Location Akita
Serving
Coordinates 39° 36' 55.1487", 140° 13' 4.9732"
Runways
Designator Length Width Surface ROPS
10/28 2499 m8,198.819 ft 61 m200.131 ft ASP yes/yes
METAR
Observation RJSK 122140Z 26018G31KT 5000 -SHSN FEW005 SCT012 BKN020 M02/M04 Q1012 RMK 1ST005 3ST012 5CU020 A2989
Station Akita Airport
Date/Time 12 December 2017 21:40:00
Wind direction 260°
Wind speed 18 kts
Lowest cloud amount few clouds
Temperature
Dew point
Humidity 86%
QNH 1012 hPa
Weather condition n/a

Akita Airport

ICAO: RJSK IATA: AXT

Description

Akita Airport is an airport located 14 km7.559 nm
14,000 m
45,931.759 ft
southeast of Akita Station in Akita, a city in the Akita Prefecture of Japan.

Climatology

Humid subtropical climate (Köppen climate classification Cfa).

Maps

Terrain

Loading map...

Airport Layout

Loading map...


Accidents & Serious Incidents at or in vicinity of RJSK

  • B739, Akita Japan, 2007 (On 6 January 2007, a Boeing B737-900 operated by Korean Airlines landed at Akita Airport on a taxiway parallel to the in-use runway after a daylight non-precision approach (NPA) using a head-up display (HUD). The crew realised their error during the landing roll.)